Aérodrome :
LOGIN :

S'inscrire | Disclaimer

   EN    FR    IT 

 










Légende :    VFR   VFR Marginal   IFR   IFR Intensif   IFR Très Intensif
Visi : 
Plafond : 
>= 8 km
>= 3000ft
5 à 8 km
1000 à 3000 ft
1500m à 5 km
500 à 1000 ft
800 à 1500m
200 à 500 ft
< 800m
< 200 ft
Symboles :   Orages  Brouillard  Fortes neiges  Fortes précipitations  Vent > 20 kt
SIGMETs :   Divers  Orages  Givrage  Turbulence  Onde Orograph.  Cendres Volcan.







- Altitude de l'aérodrome : 174 ft
- Code IATA : RYG


ENRY - Moss , Rygge

DERNIER METAR :
  • 220250Z AUTO 16005KT 120V190 9999NDV FEW070/// 13/10 Q1016

METARs EXPIRÉS :
  • 220220Z AUTO 15006KT 9999NDV FEW022/// 11/10 Q1017
  • 220150Z AUTO 14008KT 9999NDV FEW019/// 11/10 Q1017
  • 220120Z AUTO 13009KT 9999NDV FEW021/// 11/09 Q1017
  • 220050Z AUTO 12008KT 9999NDV FEW022/// 11/09 Q1017
  • 220020Z AUTO 12009KT 9999NDV FEW025/// 11/09 Q1017

TAF TAF ENRY
Valide du 22 à 00h jusqu'au 23 à 00h UTC


2200/2224 16005KT CAVOK
BECMG 2206/2208 19015KT BKN012
TEMPO 2208/2224 4000 DZRA BR BKN008
TEMPO 2212/2224 20018G28KT
Pas de NOTAMs connus pour ce terrain.



MET'MAP, la Météo Aéronautique d'un coup d'oeil ! - Copyright ORBIFLY Décembre 2007 - Disclaimer

ORBIFLY MET'MAP TEAM :

Programmation & Développement : Alexandra Zaïnal
Conception & Développement : Baudouin d'Aumeries
Co-Programmation & Développement : Marc-Olivier Méhu
Soutien technique & logistique : Manuel Goepfert

Contact : metmap@orbifly.com




SOURCES & CREDITS :

   NOAA